createdAt,value
2023-04-04T00:00:19.017Z,-0.90
2023-04-04T00:02:45.732Z,-0.80
2023-04-04T00:05:11.905Z,-0.80
2023-04-04T00:07:38.038Z,-0.70
2023-04-04T00:10:05.148Z,-0.60
2023-04-04T00:12:31.541Z,-0.70
2023-04-04T00:14:58.595Z,-0.60
2023-04-04T00:17:25.379Z,-0.50
2023-04-04T00:19:52.964Z,0.10
2023-04-04T00:22:19.167Z,-0.50
2023-04-04T00:24:45.334Z,-0.50
2023-04-04T00:27:11.502Z,-0.50
2023-04-04T00:29:37.863Z,-0.40
2023-04-04T00:32:04.157Z,2.10
2023-04-04T00:34:30.638Z,-0.50
2023-04-04T00:36:57.264Z,2.60
2023-04-04T00:39:23.591Z,-0.40
2023-04-04T00:41:49.799Z,-0.30
2023-04-04T00:44:16.842Z,-0.30
2023-04-04T00:46:43.196Z,-0.30
2023-04-04T00:49:09.453Z,-0.40
2023-04-04T00:51:36.675Z,-0.40
2023-04-04T00:54:02.882Z,-0.40
2023-04-04T00:56:30.190Z,-0.40
2023-04-04T00:58:56.581Z,0.10
2023-04-04T01:01:25.704Z,-0.30
2023-04-04T01:03:52.160Z,-0.30
2023-04-04T01:06:18.862Z,-0.40
2023-04-04T01:08:45.065Z,-0.50
2023-04-04T01:11:11.263Z,-0.60
2023-04-04T01:13:37.521Z,-0.40
2023-04-04T01:16:04.719Z,-0.70
2023-04-04T01:18:31.163Z,-0.60
2023-04-04T01:21:01.576Z,0.20
2023-04-04T01:24:02.583Z,-0.70
2023-04-04T01:26:28.760Z,-0.80
2023-04-04T01:28:56.117Z,-0.80
2023-04-04T01:31:40.039Z,-0.70
2023-04-04T01:34:31.295Z,-0.60
2023-04-04T01:37:12.522Z,-0.60
2023-04-04T01:39:51.944Z,-0.50
2023-04-04T01:42:20.196Z,-0.50
2023-04-04T01:44:46.626Z,0.40
2023-04-04T01:47:13.061Z,-0.50
2023-04-04T01:49:39.662Z,-0.50
2023-04-04T01:52:06.841Z,-0.30
2023-04-04T01:54:35.192Z,-0.50
2023-04-04T01:57:01.806Z,-0.50
2023-04-04T01:59:28.071Z,-0.50
2023-04-04T02:01:54.445Z,-0.50
2023-04-04T02:04:20.689Z,-0.50
2023-04-04T02:06:47.156Z,-0.40
2023-04-04T02:09:13.717Z,-0.40
2023-04-04T02:11:39.857Z,-0.30
2023-04-04T02:14:06.065Z,0.20
2023-04-04T02:16:33.251Z,-2.20
2023-04-04T02:18:59.378Z,-0.40
2023-04-04T02:21:26.581Z,-0.40
2023-04-04T02:23:53.169Z,-0.10
2023-04-04T02:26:20.676Z,-0.30
2023-04-04T02:28:47.112Z,-0.30
2023-04-04T02:31:14.197Z,-0.40
2023-04-04T02:33:41.095Z,-0.40
2023-04-04T02:36:07.665Z,-0.30
2023-04-04T02:38:34.254Z,-0.50
2023-04-04T02:41:00.378Z,-0.50
2023-04-04T02:43:26.503Z,-0.50
2023-04-04T02:45:52.676Z,-0.20
2023-04-04T02:48:19.104Z,-0.60
2023-04-04T02:50:46.917Z,-0.60
2023-04-04T02:53:13.243Z,-0.60
2023-04-04T02:55:39.379Z,-0.60
2023-04-04T02:58:05.540Z,-0.70
2023-04-04T03:00:31.710Z,-0.70
2023-04-04T03:02:58.033Z,-0.80
2023-04-04T03:05:24.836Z,-0.80
2023-04-04T03:07:57.863Z,-0.90
2023-04-04T03:10:25.153Z,-0.90
2023-04-04T03:12:51.309Z,-1.00
2023-04-04T03:15:17.905Z,-1.10
2023-04-04T03:17:44.509Z,-1.20
2023-04-04T03:20:12.109Z,-1.30
2023-04-04T03:22:38.649Z,-1.30
2023-04-04T03:25:06.009Z,-1.30
2023-04-04T03:27:32.474Z,-1.50
2023-04-04T03:29:58.794Z,-1.00
2023-04-04T03:32:25.667Z,-1.20
2023-04-04T03:34:52.079Z,-1.10
2023-04-04T03:37:18.765Z,-1.40
2023-04-04T03:39:47.040Z,-1.40
2023-04-04T03:42:13.185Z,-1.20
2023-04-04T03:44:42.681Z,-1.40
2023-04-04T03:47:08.861Z,-1.40
2023-04-04T03:49:34.997Z,-1.40
2023-04-04T03:52:02.742Z,-0.70
2023-04-04T03:54:28.914Z,-1.20
2023-04-04T03:56:56.168Z,-1.30
2023-04-04T03:59:23.100Z,-1.20
2023-04-04T04:01:49.316Z,-1.20
2023-04-04T04:04:15.500Z,-1.30
2023-04-04T04:06:41.840Z,-1.40
2023-04-04T04:09:08.925Z,-1.30
2023-04-04T04:11:35.634Z,-1.40
2023-04-04T04:14:03.038Z,-1.30
2023-04-04T04:16:29.604Z,-1.30
2023-04-04T04:18:56.193Z,-0.70
2023-04-04T04:21:22.474Z,-1.30
2023-04-04T04:23:48.891Z,-0.50
2023-04-04T04:26:15.072Z,-0.80
2023-04-04T04:28:41.597Z,-1.30
2023-04-04T04:31:08.537Z,-1.20
2023-04-04T04:33:34.933Z,-0.60
2023-04-04T04:36:02.415Z,-1.20
2023-04-04T04:38:29.596Z,-1.20
2023-04-04T04:40:56.200Z,-1.10
2023-04-04T04:43:22.963Z,-0.50
2023-04-04T04:45:50.069Z,-1.10
2023-04-04T04:48:17.831Z,-1.00
2023-04-04T04:50:47.204Z,-1.10
2023-04-04T04:53:13.764Z,-1.00
2023-04-04T04:55:42.424Z,-1.00
2023-04-04T04:58:10.147Z,-1.00
2023-04-04T05:00:37.398Z,-0.90
2023-04-04T05:03:06.599Z,-0.90
2023-04-04T05:05:34.773Z,-0.40
2023-04-04T05:08:02.171Z,-0.80
2023-04-04T05:10:30.141Z,-0.70
2023-04-04T05:12:56.675Z,-0.70
2023-04-04T05:15:22.811Z,-0.10
2023-04-04T05:17:49.487Z,-0.60
2023-04-04T05:20:15.756Z,-0.10
2023-04-04T05:22:44.794Z,-0.60
2023-04-04T05:25:11.741Z,-0.60
2023-04-04T05:27:38.868Z,-0.40
2023-04-04T05:30:07.038Z,-0.60
2023-04-04T05:32:33.496Z,-0.50
2023-04-04T05:35:00.269Z,-0.30
2023-04-04T05:37:27.256Z,-0.50
2023-04-04T05:39:54.650Z,-0.40
2023-04-04T05:42:21.351Z,-0.10
2023-04-04T05:44:47.513Z,-0.10
2023-04-04T05:47:13.652Z,-0.40
2023-04-04T05:49:39.977Z,-0.30
2023-04-04T05:52:07.398Z,-0.30
2023-04-04T05:54:33.725Z,-0.30
2023-04-04T05:56:59.890Z,-0.20
2023-04-04T05:59:26.487Z,-0.10
2023-04-04T06:01:53.231Z,-0.10
2023-04-04T06:04:19.362Z,0.30
2023-04-04T06:06:47.871Z,-0.70
2023-04-04T06:09:14.071Z,0.00
2023-04-04T06:11:40.297Z,0.10
2023-04-04T06:14:07.590Z,0.00
2023-04-04T06:16:34.956Z,0.30
2023-04-04T06:19:01.138Z,0.10
2023-04-04T06:21:27.560Z,0.10
2023-04-04T06:23:53.756Z,0.10
2023-04-04T06:26:20.005Z,0.80
2023-04-04T06:28:50.214Z,0.30
2023-04-04T06:31:17.930Z,0.40
2023-04-04T06:33:44.368Z,0.50
2023-04-04T06:36:11.375Z,0.40
2023-04-04T06:38:38.604Z,0.50
2023-04-04T06:41:04.818Z,0.90
2023-04-04T06:43:31.182Z,0.60
2023-04-04T06:45:57.551Z,0.60
2023-04-04T06:48:23.762Z,0.80
2023-04-04T06:50:50.576Z,0.80
2023-04-04T06:53:16.860Z,0.70
2023-04-04T06:55:44.044Z,0.80
2023-04-04T06:58:10.534Z,1.00
2023-04-04T07:00:37.006Z,1.10
2023-04-04T07:03:03.784Z,1.00
2023-04-04T07:05:31.876Z,1.00
2023-04-04T07:07:58.256Z,1.00
2023-04-04T07:10:24.863Z,1.00
2023-04-04T07:12:51.753Z,1.10
2023-04-04T07:15:17.982Z,1.10
2023-04-04T07:17:45.290Z,1.20
2023-04-04T07:20:12.410Z,1.20
2023-04-04T07:22:39.273Z,1.20
2023-04-04T07:25:07.247Z,1.30
2023-04-04T07:27:33.446Z,1.10
2023-04-04T07:29:59.718Z,0.90
2023-04-04T07:32:26.080Z,1.10
2023-04-04T07:34:53.004Z,1.40
2023-04-04T07:37:19.233Z,1.50
2023-04-04T07:39:46.536Z,1.20
2023-04-04T07:42:12.908Z,1.20
2023-04-04T07:44:39.477Z,1.30
2023-04-04T07:47:09.962Z,1.30
2023-04-04T07:49:36.925Z,1.60
2023-04-04T07:52:04.171Z,1.40
2023-04-04T07:54:30.626Z,1.50
2023-04-04T07:56:57.445Z,1.60
2023-04-04T07:59:24.587Z,1.50
2023-04-04T08:01:52.635Z,1.70
2023-04-04T08:04:19.101Z,1.60
2023-04-04T08:06:45.417Z,1.60
2023-04-04T08:09:11.611Z,2.00
2023-04-04T08:11:38.392Z,1.70
2023-04-04T08:14:05.423Z,1.60
2023-04-04T08:16:31.798Z,1.60
2023-04-04T08:19:00.163Z,1.70
2023-04-04T08:21:26.879Z,1.60
2023-04-04T08:23:53.839Z,1.70
2023-04-04T08:26:21.599Z,-0.40
2023-04-04T08:28:48.429Z,1.70
2023-04-04T08:31:15.053Z,1.70
2023-04-04T08:36:11.884Z,1.70
2023-04-04T08:38:38.494Z,1.90
2023-04-04T08:41:04.885Z,2.00
2023-04-04T08:43:34.006Z,1.90
2023-04-04T08:46:01.340Z,1.70
2023-04-04T08:48:30.373Z,1.70
2023-04-04T08:50:59.973Z,1.70
2023-04-04T08:53:26.465Z,2.20
2023-04-04T08:55:53.816Z,2.00
2023-04-04T08:58:20.870Z,1.90
2023-04-04T09:00:47.438Z,1.90
2023-04-04T09:03:26.002Z,1.90
2023-04-04T09:05:54.070Z,2.00
2023-04-04T09:08:23.089Z,2.30
2023-04-04T09:10:49.288Z,2.40
2023-04-04T09:13:17.037Z,2.60
2023-04-04T09:15:46.856Z,2.60
2023-04-04T09:18:14.253Z,2.70
2023-04-04T09:20:48.808Z,2.80
2023-04-04T09:23:17.072Z,2.90
2023-04-04T09:28:20.482Z,3.30
2023-04-04T09:30:50.613Z,3.60
2023-04-04T09:33:17.637Z,3.20
2023-04-04T09:35:46.230Z,3.30
2023-04-04T09:38:13.786Z,3.50
2023-04-04T09:40:41.498Z,3.00
2023-04-04T09:43:08.790Z,2.60
2023-04-04T09:45:36.505Z,2.60
2023-04-04T09:48:02.936Z,2.50
2023-04-04T09:50:29.726Z,2.60
2023-04-04T09:52:57.831Z,2.90
2023-04-04T09:55:34.450Z,2.90
2023-04-04T09:58:12.331Z,2.90
2023-04-04T10:00:42.186Z,3.10
2023-04-04T10:03:10.360Z,2.90
2023-04-04T10:05:36.550Z,3.30
2023-04-04T10:08:16.707Z,3.00
2023-04-04T10:13:42.033Z,4.20
2023-04-04T10:16:09.580Z,3.40
2023-04-04T10:18:36.425Z,3.40
2023-04-04T10:23:38.130Z,3.10
2023-04-04T10:26:05.064Z,3.50
2023-04-04T10:28:33.199Z,3.50
2023-04-04T10:31:22.111Z,2.90
2023-04-04T10:35:22.371Z,2.70
2023-04-04T10:38:07.764Z,2.90
2023-04-04T10:40:39.671Z,3.10
2023-04-04T10:43:06.753Z,3.30
2023-04-04T10:45:34.884Z,3.30
2023-04-04T10:48:02.595Z,3.40
2023-04-04T10:50:31.697Z,3.40
2023-04-04T10:53:00.490Z,4.20
2023-04-04T10:55:27.023Z,4.10
2023-04-04T10:57:55.575Z,4.20
2023-04-04T11:00:26.636Z,4.50
2023-04-04T11:03:00.126Z,3.50
2023-04-04T11:05:41.465Z,3.30
2023-04-04T11:08:13.483Z,3.00
2023-04-04T11:10:43.985Z,3.10
2023-04-04T11:13:25.291Z,3.10
2023-04-04T11:16:04.684Z,2.90
2023-04-04T11:19:32.773Z,2.90
2023-04-04T11:21:59.576Z,3.40
2023-04-04T11:24:27.721Z,3.20
2023-04-04T11:26:54.446Z,2.80
2023-04-04T11:29:23.369Z,3.00
2023-04-04T11:31:50.935Z,3.20
2023-04-04T11:34:30.950Z,3.10
2023-04-04T11:36:57.493Z,3.00
2023-04-04T11:39:30.462Z,3.20
2023-04-04T11:42:13.250Z,3.10
2023-04-04T11:45:25.338Z,3.00
2023-04-04T11:47:53.341Z,3.00
2023-04-04T11:50:21.108Z,3.50
2023-04-04T11:52:47.324Z,6.20
2023-04-04T11:55:15.176Z,3.90
2023-04-04T11:57:42.712Z,4.10
2023-04-04T12:00:11.598Z,3.80
2023-04-04T12:02:38.851Z,3.60
2023-04-04T12:05:06.183Z,3.50
2023-04-04T12:07:33.503Z,3.20
2023-04-04T12:10:00.758Z,3.20
2023-04-04T12:12:29.563Z,2.90
2023-04-04T12:15:03.458Z,2.80
2023-04-04T12:17:41.570Z,2.90
2023-04-04T12:20:10.599Z,3.00
2023-04-04T12:22:38.262Z,3.20
2023-04-04T12:25:06.024Z,4.70
2023-04-04T12:27:32.347Z,3.90
2023-04-04T12:30:00.987Z,4.00
2023-04-04T12:32:27.522Z,3.50
2023-04-04T12:35:00.022Z,3.20
2023-04-04T12:37:28.828Z,3.90
2023-04-04T12:39:55.812Z,3.10
2023-04-04T12:42:25.175Z,3.00
2023-04-04T12:44:52.257Z,2.80
2023-04-04T12:47:20.601Z,2.90
2023-04-04T12:49:50.627Z,3.10
2023-04-04T12:52:20.954Z,6.00
2023-04-04T12:54:50.797Z,3.70
2023-04-04T12:57:24.026Z,4.10
2023-04-04T12:59:51.059Z,4.50
2023-04-04T13:02:18.569Z,4.60
2023-04-04T13:04:45.880Z,4.00
2023-04-04T13:07:26.750Z,3.40
2023-04-04T13:10:04.833Z,3.40
2023-04-04T13:12:58.054Z,3.30
2023-04-04T13:15:47.762Z,3.60
2023-04-04T13:18:15.376Z,4.00
2023-04-04T13:20:41.527Z,5.60
2023-04-04T13:23:07.860Z,5.90
2023-04-04T13:25:34.188Z,5.40
2023-04-04T13:28:00.614Z,5.00
2023-04-04T13:30:27.451Z,4.30
2023-04-04T13:32:53.733Z,4.10
2023-04-04T13:35:20.061Z,3.70
2023-04-04T13:37:46.443Z,3.70
2023-04-04T13:40:12.661Z,3.90
2023-04-04T13:42:39.107Z,3.80
2023-04-04T13:45:06.177Z,3.70
2023-04-04T13:47:32.910Z,3.80
2023-04-04T13:50:00.235Z,3.70
2023-04-04T13:52:26.443Z,3.40
2023-04-04T13:54:52.775Z,4.00
2023-04-04T13:57:19.132Z,3.80
2023-04-04T13:59:45.456Z,3.80
2023-04-04T14:02:12.289Z,3.70
2023-04-04T14:04:38.562Z,3.50
2023-04-04T14:07:05.474Z,3.50
2023-04-04T14:09:31.728Z,3.70
2023-04-04T14:11:57.957Z,3.70
2023-04-04T14:14:24.145Z,3.80
2023-04-04T14:16:51.628Z,3.80
2023-04-04T14:19:18.096Z,3.80
2023-04-04T14:21:44.894Z,3.50
2023-04-04T14:24:11.729Z,3.50
2023-04-04T14:26:38.790Z,3.40
2023-04-04T14:29:05.031Z,3.20
2023-04-04T14:31:34.386Z,3.10
2023-04-04T14:34:01.803Z,3.10
2023-04-04T14:36:28.850Z,4.30
2023-04-04T14:38:55.139Z,3.00
2023-04-04T14:41:22.212Z,3.00
2023-04-04T14:43:49.104Z,3.10
2023-04-04T14:46:16.514Z,3.40
2023-04-04T14:48:42.683Z,3.60
2023-04-04T14:51:08.942Z,3.40
2023-04-04T14:53:36.771Z,3.60
2023-04-04T14:56:03.329Z,3.50
2023-04-04T14:58:30.782Z,3.50
2023-04-04T15:00:57.981Z,3.30
2023-04-04T15:03:26.523Z,3.30
2023-04-04T15:05:52.930Z,3.20
2023-04-04T15:08:19.692Z,3.30
2023-04-04T15:10:45.939Z,3.40
2023-04-04T15:13:13.164Z,3.40
2023-04-04T15:15:39.597Z,3.40
2023-04-04T15:18:07.640Z,3.50
2023-04-04T15:20:39.762Z,3.70
2023-04-04T15:23:06.836Z,3.80
2023-04-04T15:25:33.746Z,3.60
2023-04-04T15:28:01.433Z,3.70
2023-04-04T15:30:29.806Z,3.90
2023-04-04T15:32:59.904Z,3.70
2023-04-04T15:35:26.942Z,3.50
2023-04-04T15:37:54.607Z,3.20
2023-04-04T15:40:21.281Z,3.20
2023-04-04T15:42:48.217Z,3.30
2023-04-04T15:45:15.244Z,3.40
2023-04-04T15:47:42.053Z,3.90
2023-04-04T15:50:08.869Z,3.90
2023-04-04T15:52:35.818Z,4.10
2023-04-04T15:55:03.372Z,3.90
2023-04-04T15:57:29.839Z,3.90
2023-04-04T15:59:56.051Z,3.90
2023-04-04T16:02:23.357Z,3.70
2023-04-04T16:04:49.976Z,3.50
2023-04-04T16:07:16.589Z,3.40
2023-04-04T16:09:42.854Z,3.40
2023-04-04T16:12:09.261Z,3.50
2023-04-04T16:14:35.503Z,3.30
2023-04-04T16:17:02.830Z,3.40
2023-04-04T16:19:29.864Z,3.30
2023-04-04T16:21:56.207Z,3.30
2023-04-04T16:24:22.504Z,3.20
2023-04-04T16:26:49.643Z,3.20
2023-04-04T16:29:17.166Z,3.10
2023-04-04T16:31:43.360Z,3.10
2023-04-04T16:34:09.926Z,3.10
2023-04-04T16:36:36.709Z,3.10
2023-04-04T16:39:03.598Z,3.10
2023-04-04T16:41:29.952Z,3.10
2023-04-04T16:43:59.346Z,3.10
2023-04-04T16:46:26.682Z,3.10
2023-04-04T16:48:53.623Z,5.20
2023-04-04T16:51:20.279Z,2.90
2023-04-04T16:53:46.520Z,2.80
2023-04-04T16:56:13.911Z,2.70
2023-04-04T16:58:41.504Z,2.60
2023-04-04T17:01:08.184Z,2.60
2023-04-04T17:03:35.866Z,2.50
2023-04-04T17:06:02.731Z,2.40
2023-04-04T17:08:28.920Z,2.30
2023-04-04T17:10:55.242Z,2.20
2023-04-04T17:13:22.360Z,2.10
2023-04-04T17:15:50.352Z,2.10
2023-04-04T17:18:17.192Z,2.00
2023-04-04T17:20:43.761Z,1.90
2023-04-04T17:23:10.600Z,1.80
2023-04-04T17:25:37.346Z,1.70
2023-04-04T17:28:04.155Z,1.50
2023-04-04T17:30:30.675Z,1.40
2023-04-04T17:32:57.228Z,1.30
2023-04-04T17:35:26.271Z,1.10
2023-04-04T17:37:53.142Z,1.00
2023-04-04T17:40:19.386Z,0.80
2023-04-04T17:42:45.677Z,0.80
2023-04-04T17:45:13.063Z,1.30
2023-04-04T17:47:39.399Z,0.50
2023-04-04T17:50:07.129Z,0.10
2023-04-04T17:52:34.002Z,0.20
2023-04-04T17:55:01.025Z,0.20
2023-04-04T17:57:28.278Z,0.20
2023-04-04T17:59:55.824Z,0.20
2023-04-04T18:02:22.341Z,0.20
2023-04-04T18:04:50.797Z,0.10
2023-04-04T18:07:19.687Z,0.10
2023-04-04T18:09:46.461Z,0.10
2023-04-04T18:12:13.546Z,0.00
2023-04-04T18:14:40.398Z,-0.10
2023-04-04T18:17:06.935Z,-0.10
2023-04-04T18:19:35.302Z,-0.20
2023-04-04T18:22:02.207Z,-0.30
2023-04-04T18:24:29.184Z,-0.30
2023-04-04T18:26:56.225Z,-0.30
2023-04-04T18:29:25.171Z,-0.40
2023-04-04T18:31:52.855Z,-0.50
2023-04-04T18:34:20.896Z,-0.60
2023-04-04T18:36:49.599Z,-0.60
2023-04-04T18:39:18.102Z,-0.60
2023-04-04T18:41:45.879Z,0.90
2023-04-04T18:44:12.117Z,-0.60
2023-04-04T18:46:39.463Z,-0.70
2023-04-04T18:49:06.717Z,-0.80
2023-04-04T18:51:33.616Z,-0.80
2023-04-04T18:54:00.392Z,-0.90
2023-04-04T18:56:27.482Z,-0.80
2023-04-04T18:58:53.680Z,-0.80
2023-04-04T19:01:21.443Z,-0.30
2023-04-04T19:03:47.742Z,-0.80
2023-04-04T19:06:15.470Z,-0.90
2023-04-04T19:08:43.706Z,-0.90
2023-04-04T19:11:11.612Z,-0.90
2023-04-04T19:13:37.858Z,-0.90
2023-04-04T19:16:04.806Z,-1.00
2023-04-04T19:18:32.814Z,-1.00
2023-04-04T19:20:59.060Z,-1.00
2023-04-04T19:23:28.576Z,-1.10
2023-04-04T19:25:56.639Z,-1.20
2023-04-04T19:28:23.736Z,0.50
2023-04-04T19:30:55.143Z,-1.30
2023-04-04T19:33:23.074Z,-1.40
2023-04-04T19:35:59.352Z,-4.10
2023-04-04T19:38:36.798Z,-1.20
2023-04-04T19:41:07.972Z,-1.60
2023-04-04T19:43:38.725Z,-1.70
2023-04-04T19:46:09.525Z,-1.70
2023-04-04T19:48:51.897Z,0.10
2023-04-04T19:51:47.852Z,-1.70
2023-04-04T19:54:16.080Z,-1.70
2023-04-04T19:56:45.408Z,-1.60
2023-04-04T20:00:03.523Z,-1.50
2023-04-04T20:02:47.102Z,-1.40
2023-04-04T20:08:48.736Z,-1.30
2023-04-04T20:11:16.113Z,-1.20
2023-04-04T20:13:43.189Z,-1.30
2023-04-04T20:16:11.466Z,-1.20
2023-04-04T20:18:38.385Z,-1.10
2023-04-04T20:21:25.809Z,-0.50
2023-04-04T20:23:57.085Z,-1.20
2023-04-04T20:28:34.050Z,-1.20
2023-04-04T20:31:10.917Z,-1.30
2023-04-04T20:33:40.360Z,-1.30
2023-04-04T20:36:11.845Z,-1.40
2023-04-04T20:38:40.028Z,-1.40
2023-04-04T20:41:17.934Z,-1.50
2023-04-04T20:43:57.065Z,-1.60
2023-04-04T20:46:25.139Z,-1.60
2023-04-04T20:48:55.659Z,-1.70
2023-04-04T20:51:30.963Z,-1.60
2023-04-04T20:54:02.142Z,-1.70
2023-04-04T20:56:45.892Z,-1.80
2023-04-04T20:59:30.759Z,-1.50
2023-04-04T21:02:08.263Z,-1.90
2023-04-04T21:04:35.165Z,-1.90
2023-04-04T21:07:02.225Z,-1.90
2023-04-04T21:09:28.614Z,-2.00
2023-04-04T21:11:55.552Z,-1.90
2023-04-04T21:14:28.857Z,-1.20
2023-04-04T21:16:55.055Z,-0.60
2023-04-04T21:19:23.369Z,-2.00
2023-04-04T21:21:50.574Z,-2.00
2023-04-04T21:24:16.837Z,-2.10
2023-04-04T21:26:43.746Z,-2.00
2023-04-04T21:29:24.641Z,-2.10
2023-04-04T21:31:52.160Z,-2.00
2023-04-04T21:34:21.415Z,-2.10
2023-04-04T21:36:48.741Z,-2.00
2023-04-04T21:39:24.962Z,-1.60
2023-04-04T21:41:52.856Z,-2.00
2023-04-04T21:44:19.739Z,-1.90
2023-04-04T21:46:46.069Z,-1.90
2023-04-04T21:49:12.845Z,-1.90
2023-04-04T21:51:39.060Z,-1.80
2023-04-04T21:54:05.682Z,-1.80
2023-04-04T21:56:32.294Z,-1.80
2023-04-04T21:58:59.643Z,-2.50
2023-04-04T22:01:27.007Z,-1.80
2023-04-04T22:03:53.471Z,-1.80
2023-04-04T22:06:21.617Z,-1.50
2023-04-04T22:08:47.787Z,-1.40
2023-04-04T22:11:19.683Z,-1.90
2023-04-04T22:13:49.573Z,-1.90
2023-04-04T22:16:16.768Z,-1.80
2023-04-04T22:18:47.066Z,-1.90
2023-04-04T22:21:14.830Z,-1.40
2023-04-04T22:23:42.163Z,-1.60
2023-04-04T22:26:10.775Z,-1.50
2023-04-04T22:28:37.885Z,-2.00
2023-04-04T22:31:05.437Z,-1.60
2023-04-04T22:33:33.431Z,-2.00
2023-04-04T22:36:04.625Z,-1.50
2023-04-04T22:38:31.983Z,-2.00
2023-04-04T22:40:59.302Z,-2.00
2023-04-04T22:43:26.043Z,-2.00
2023-04-04T22:45:52.834Z,-2.10
2023-04-04T22:48:22.765Z,-2.10
2023-04-04T22:50:50.451Z,-2.10
2023-04-04T22:53:24.031Z,-0.60
2023-04-04T22:55:53.152Z,-2.10
2023-04-04T22:58:20.378Z,-1.50
2023-04-04T23:00:47.686Z,-1.30
2023-04-04T23:03:15.913Z,-1.90
2023-04-04T23:05:42.647Z,-1.80
2023-04-04T23:08:09.135Z,-1.70
2023-04-04T23:10:36.125Z,-1.10
2023-04-04T23:13:02.385Z,-1.60
2023-04-04T23:15:28.535Z,-1.40
2023-04-04T23:17:55.099Z,-3.10
2023-04-04T23:20:21.308Z,-1.20
2023-04-04T23:22:47.981Z,-1.00
2023-04-04T23:25:14.101Z,-1.10
2023-04-04T23:27:42.669Z,-1.00
2023-04-04T23:30:09.911Z,-1.00
2023-04-04T23:32:36.187Z,-0.90
2023-04-04T23:35:02.425Z,-0.20
2023-04-04T23:37:28.604Z,-0.70
2023-04-04T23:39:54.818Z,-0.50
2023-04-04T23:42:20.999Z,-0.60
2023-04-04T23:44:47.816Z,-0.60
2023-04-04T23:47:14.009Z,-0.50
2023-04-04T23:49:41.505Z,-0.50
2023-04-04T23:52:08.391Z,-0.40
2023-04-04T23:54:35.509Z,-0.50
2023-04-04T23:57:02.091Z,-0.50
2023-04-04T23:59:28.495Z,-0.50
